sensor_id;sensor_type;location;lat;lon;timestamp;P1;durP1;ratioP1;P2;durP2;ratioP2
45354;SDS011;31091;48.758;9.150;2023-06-05T00:01:19;6.22;;;2.85;;
45354;SDS011;31091;48.758;9.150;2023-06-05T00:04:04;4.13;;;2.40;;
45354;SDS011;31091;48.758;9.150;2023-06-05T00:06:50;3.63;;;2.20;;
45354;SDS011;31091;48.758;9.150;2023-06-05T00:09:38;3.97;;;1.98;;
45354;SDS011;31091;48.758;9.150;2023-06-05T00:12:23;3.58;;;2.20;;
45354;SDS011;31091;48.758;9.150;2023-06-05T00:15:08;3.40;;;2.05;;
45354;SDS011;31091;48.758;9.150;2023-06-05T00:17:53;4.30;;;2.13;;
45354;SDS011;31091;48.758;9.150;2023-06-05T00:20:40;4.43;;;2.63;;
45354;SDS011;31091;48.758;9.150;2023-06-05T00:23:25;4.47;;;2.05;;
45354;SDS011;31091;48.758;9.150;2023-06-05T00:26:10;3.35;;;2.05;;
45354;SDS011;31091;48.758;9.150;2023-06-05T00:28:55;4.93;;;2.78;;
45354;SDS011;31091;48.758;9.150;2023-06-05T00:31:42;4.80;;;2.80;;
45354;SDS011;31091;48.758;9.150;2023-06-05T00:34:27;3.33;;;2.22;;
45354;SDS011;31091;48.758;9.150;2023-06-05T00:37:12;4.13;;;2.13;;
45354;SDS011;31091;48.758;9.150;2023-06-05T00:40:00;7.03;;;2.25;;
45354;SDS011;31091;48.758;9.150;2023-06-05T00:42:46;3.75;;;2.35;;
45354;SDS011;31091;48.758;9.150;2023-06-05T00:45:31;5.50;;;2.20;;
45354;SDS011;31091;48.758;9.150;2023-06-05T00:48:16;3.88;;;2.30;;
45354;SDS011;31091;48.758;9.150;2023-06-05T00:51:02;4.18;;;2.13;;
45354;SDS011;31091;48.758;9.150;2023-06-05T00:53:48;4.10;;;2.17;;
45354;SDS011;31091;48.758;9.150;2023-06-05T00:56:33;4.40;;;1.92;;
45354;SDS011;31091;48.758;9.150;2023-06-05T00:59:20;8.52;;;2.00;;
45354;SDS011;31091;48.758;9.150;2023-06-05T01:02:05;4.30;;;2.28;;
45354;SDS011;31091;48.758;9.150;2023-06-05T01:04:51;4.00;;;2.10;;
45354;SDS011;31091;48.758;9.150;2023-06-05T01:07:36;6.40;;;3.08;;
45354;SDS011;31091;48.758;9.150;2023-06-05T01:10:24;7.18;;;3.20;;
45354;SDS011;31091;48.758;9.150;2023-06-05T01:13:13;4.20;;;2.42;;
45354;SDS011;31091;48.758;9.150;2023-06-05T01:16:00;4.30;;;2.60;;
45354;SDS011;31091;48.758;9.150;2023-06-05T01:18:49;3.45;;;2.10;;
45354;SDS011;31091;48.758;9.150;2023-06-05T01:21:34;5.15;;;2.75;;
45354;SDS011;31091;48.758;9.150;2023-06-05T01:24:20;3.47;;;2.35;;
45354;SDS011;31091;48.758;9.150;2023-06-05T01:30:06;4.50;;;2.25;;
45354;SDS011;31091;48.758;9.150;2023-06-05T01:32:54;5.90;;;2.20;;
45354;SDS011;31091;48.758;9.150;2023-06-05T01:35:40;2.65;;;2.00;;
45354;SDS011;31091;48.758;9.150;2023-06-05T01:38:26;5.95;;;2.63;;
45354;SDS011;31091;48.758;9.150;2023-06-05T01:41:11;4.28;;;2.20;;
45354;SDS011;31091;48.758;9.150;2023-06-05T01:43:57;4.50;;;2.30;;
45354;SDS011;31091;48.758;9.150;2023-06-05T01:46:43;3.75;;;2.17;;
45354;SDS011;31091;48.758;9.150;2023-06-05T01:49:28;3.80;;;2.28;;
45354;SDS011;31091;48.758;9.150;2023-06-05T01:52:13;6.03;;;2.60;;
45354;SDS011;31091;48.758;9.150;2023-06-05T01:55:00;3.35;;;1.88;;
45354;SDS011;31091;48.758;9.150;2023-06-05T01:57:47;3.70;;;2.25;;
45354;SDS011;31091;48.758;9.150;2023-06-05T02:00:32;3.25;;;2.10;;
45354;SDS011;31091;48.758;9.150;2023-06-05T02:03:20;4.28;;;2.30;;
45354;SDS011;31091;48.758;9.150;2023-06-05T02:06:05;5.05;;;2.15;;
45354;SDS011;31091;48.758;9.150;2023-06-05T02:08:51;2.88;;;1.98;;
45354;SDS011;31091;48.758;9.150;2023-06-05T02:11:36;3.67;;;1.80;;
45354;SDS011;31091;48.758;9.150;2023-06-05T02:14:22;4.63;;;2.47;;
45354;SDS011;31091;48.758;9.150;2023-06-05T02:17:08;5.18;;;1.98;;
45354;SDS011;31091;48.758;9.150;2023-06-05T02:19:53;3.33;;;2.13;;
45354;SDS011;31091;48.758;9.150;2023-06-05T02:22:38;5.15;;;2.20;;
45354;SDS011;31091;48.758;9.150;2023-06-05T02:25:25;4.82;;;2.42;;
45354;SDS011;31091;48.758;9.150;2023-06-05T02:28:13;4.05;;;2.50;;
45354;SDS011;31091;48.758;9.150;2023-06-05T02:30:58;5.97;;;2.40;;
45354;SDS011;31091;48.758;9.150;2023-06-05T02:33:44;3.67;;;2.33;;
45354;SDS011;31091;48.758;9.150;2023-06-05T02:36:29;3.45;;;2.25;;
45354;SDS011;31091;48.758;9.150;2023-06-05T02:39:17;5.13;;;2.58;;
45354;SDS011;31091;48.758;9.150;2023-06-05T02:42:03;4.97;;;2.10;;
45354;SDS011;31091;48.758;9.150;2023-06-05T02:44:48;4.72;;;2.10;;
45354;SDS011;31091;48.758;9.150;2023-06-05T02:47:33;4.82;;;2.08;;
45354;SDS011;31091;48.758;9.150;2023-06-05T02:50:19;4.80;;;2.33;;
45354;SDS011;31091;48.758;9.150;2023-06-05T02:53:04;3.30;;;2.20;;
45354;SDS011;31091;48.758;9.150;2023-06-05T02:55:49;3.83;;;2.42;;
45354;SDS011;31091;48.758;9.150;2023-06-05T02:58:34;4.90;;;2.03;;
45354;SDS011;31091;48.758;9.150;2023-06-05T03:01:20;4.65;;;2.22;;
45354;SDS011;31091;48.758;9.150;2023-06-05T03:04:06;3.17;;;2.00;;
45354;SDS011;31091;48.758;9.150;2023-06-05T03:06:51;3.83;;;2.25;;
45354;SDS011;31091;48.758;9.150;2023-06-05T03:09:38;5.43;;;2.70;;
45354;SDS011;31091;48.758;9.150;2023-06-05T03:12:23;4.50;;;2.17;;
45354;SDS011;31091;48.758;9.150;2023-06-05T03:15:08;8.18;;;2.95;;
45354;SDS011;31091;48.758;9.150;2023-06-05T03:17:54;4.25;;;2.30;;
45354;SDS011;31091;48.758;9.150;2023-06-05T03:20:39;4.00;;;2.15;;
45354;SDS011;31091;48.758;9.150;2023-06-05T03:23:25;4.93;;;2.05;;
45354;SDS011;31091;48.758;9.150;2023-06-05T03:26:10;5.18;;;2.10;;
45354;SDS011;31091;48.758;9.150;2023-06-05T03:28:56;2.88;;;2.05;;
45354;SDS011;31091;48.758;9.150;2023-06-05T03:31:41;4.07;;;2.28;;
45354;SDS011;31091;48.758;9.150;2023-06-05T03:34:27;4.78;;;2.53;;
45354;SDS011;31091;48.758;9.150;2023-06-05T03:37:14;5.15;;;2.38;;
45354;SDS011;31091;48.758;9.150;2023-06-05T03:40:00;6.35;;;2.70;;
45354;SDS011;31091;48.758;9.150;2023-06-05T03:42:45;3.78;;;2.38;;
45354;SDS011;31091;48.758;9.150;2023-06-05T03:45:30;4.90;;;2.70;;
45354;SDS011;31091;48.758;9.150;2023-06-05T03:48:16;5.43;;;2.45;;
45354;SDS011;31091;48.758;9.150;2023-06-05T03:51:04;3.00;;;2.00;;
45354;SDS011;31091;48.758;9.150;2023-06-05T03:53:50;5.90;;;2.50;;
45354;SDS011;31091;48.758;9.150;2023-06-05T03:56:40;3.65;;;2.42;;
45354;SDS011;31091;48.758;9.150;2023-06-05T03:59:28;4.85;;;2.70;;
45354;SDS011;31091;48.758;9.150;2023-06-05T04:02:13;6.07;;;2.42;;
45354;SDS011;31091;48.758;9.150;2023-06-05T04:04:58;5.22;;;1.90;;
45354;SDS011;31091;48.758;9.150;2023-06-05T04:07:45;5.18;;;2.50;;
45354;SDS011;31091;48.758;9.150;2023-06-05T04:10:31;5.38;;;2.35;;
45354;SDS011;31091;48.758;9.150;2023-06-05T04:13:16;5.50;;;2.28;;
45354;SDS011;31091;48.758;9.150;2023-06-05T04:16:01;5.10;;;2.63;;
45354;SDS011;31091;48.758;9.150;2023-06-05T04:18:47;4.80;;;2.63;;
45354;SDS011;31091;48.758;9.150;2023-06-05T04:21:33;4.32;;;2.40;;
45354;SDS011;31091;48.758;9.150;2023-06-05T04:24:19;6.40;;;3.22;;
45354;SDS011;31091;48.758;9.150;2023-06-05T04:27:04;4.07;;;2.30;;
45354;SDS011;31091;48.758;9.150;2023-06-05T04:29:50;5.30;;;2.83;;
45354;SDS011;31091;48.758;9.150;2023-06-05T04:32:37;3.88;;;2.30;;
45354;SDS011;31091;48.758;9.150;2023-06-05T04:35:23;5.75;;;2.50;;
45354;SDS011;31091;48.758;9.150;2023-06-05T04:38:08;3.95;;;2.50;;
45354;SDS011;31091;48.758;9.150;2023-06-05T04:40:54;5.78;;;2.80;;
45354;SDS011;31091;48.758;9.150;2023-06-05T04:43:39;3.38;;;2.20;;
45354;SDS011;31091;48.758;9.150;2023-06-05T04:46:25;6.28;;;2.70;;
45354;SDS011;31091;48.758;9.150;2023-06-05T04:49:14;6.35;;;2.58;;
45354;SDS011;31091;48.758;9.150;2023-06-05T04:51:59;6.70;;;3.42;;
45354;SDS011;31091;48.758;9.150;2023-06-05T04:54:45;3.95;;;2.85;;
45354;SDS011;31091;48.758;9.150;2023-06-05T04:57:30;3.67;;;2.30;;
45354;SDS011;31091;48.758;9.150;2023-06-05T05:00:15;5.43;;;2.28;;
45354;SDS011;31091;48.758;9.150;2023-06-05T05:03:01;3.53;;;2.50;;
45354;SDS011;31091;48.758;9.150;2023-06-05T05:05:46;6.05;;;2.28;;
45354;SDS011;31091;48.758;9.150;2023-06-05T05:08:31;6.03;;;2.88;;
45354;SDS011;31091;48.758;9.150;2023-06-05T05:11:16;6.38;;;2.83;;
45354;SDS011;31091;48.758;9.150;2023-06-05T05:14:02;4.45;;;2.38;;
45354;SDS011;31091;48.758;9.150;2023-06-05T05:16:47;5.32;;;2.63;;
45354;SDS011;31091;48.758;9.150;2023-06-05T05:19:34;6.80;;;3.33;;
45354;SDS011;31091;48.758;9.150;2023-06-05T05:22:19;5.20;;;2.72;;
45354;SDS011;31091;48.758;9.150;2023-06-05T05:25:05;7.13;;;3.13;;
45354;SDS011;31091;48.758;9.150;2023-06-05T05:27:50;4.25;;;2.47;;
45354;SDS011;31091;48.758;9.150;2023-06-05T05:30:36;4.38;;;2.55;;
45354;SDS011;31091;48.758;9.150;2023-06-05T05:33:21;4.93;;;2.58;;
45354;SDS011;31091;48.758;9.150;2023-06-05T05:36:07;4.63;;;2.33;;
45354;SDS011;31091;48.758;9.150;2023-06-05T05:38:55;5.80;;;2.72;;
45354;SDS011;31091;48.758;9.150;2023-06-05T05:41:40;5.90;;;3.10;;
45354;SDS011;31091;48.758;9.150;2023-06-05T05:44:26;6.72;;;2.70;;
45354;SDS011;31091;48.758;9.150;2023-06-05T05:47:11;6.40;;;2.50;;
45354;SDS011;31091;48.758;9.150;2023-06-05T05:49:56;6.32;;;2.65;;
45354;SDS011;31091;48.758;9.150;2023-06-05T05:52:41;6.60;;;2.33;;
45354;SDS011;31091;48.758;9.150;2023-06-05T05:55:28;8.45;;;3.10;;
45354;SDS011;31091;48.758;9.150;2023-06-05T05:58:13;7.03;;;2.80;;
45354;SDS011;31091;48.758;9.150;2023-06-05T06:00:58;5.88;;;2.40;;
45354;SDS011;31091;48.758;9.150;2023-06-05T06:03:44;3.25;;;2.20;;
45354;SDS011;31091;48.758;9.150;2023-06-05T06:06:29;6.95;;;2.85;;
45354;SDS011;31091;48.758;9.150;2023-06-05T06:09:14;6.35;;;2.72;;
45354;SDS011;31091;48.758;9.150;2023-06-05T06:12:00;7.07;;;2.92;;
45354;SDS011;31091;48.758;9.150;2023-06-05T06:14:50;4.40;;;2.55;;
45354;SDS011;31091;48.758;9.150;2023-06-05T06:17:36;5.65;;;2.65;;
45354;SDS011;31091;48.758;9.150;2023-06-05T06:20:21;4.25;;;2.60;;
45354;SDS011;31091;48.758;9.150;2023-06-05T06:23:07;3.95;;;2.47;;
45354;SDS011;31091;48.758;9.150;2023-06-05T06:25:52;5.57;;;2.80;;
45354;SDS011;31091;48.758;9.150;2023-06-05T06:28:37;7.05;;;2.80;;
45354;SDS011;31091;48.758;9.150;2023-06-05T06:31:22;7.20;;;3.05;;
45354;SDS011;31091;48.758;9.150;2023-06-05T06:34:08;7.38;;;3.08;;
45354;SDS011;31091;48.758;9.150;2023-06-05T06:36:55;6.28;;;2.75;;
45354;SDS011;31091;48.758;9.150;2023-06-05T06:39:41;6.25;;;3.65;;
45354;SDS011;31091;48.758;9.150;2023-06-05T06:42:26;8.23;;;3.15;;
45354;SDS011;31091;48.758;9.150;2023-06-05T06:45:12;6.95;;;3.20;;
45354;SDS011;31091;48.758;9.150;2023-06-05T06:47:57;7.45;;;3.20;;
45354;SDS011;31091;48.758;9.150;2023-06-05T06:50:42;5.07;;;3.30;;
45354;SDS011;31091;48.758;9.150;2023-06-05T06:53:27;12.32;;;3.95;;
45354;SDS011;31091;48.758;9.150;2023-06-05T06:56:16;8.32;;;3.17;;
45354;SDS011;31091;48.758;9.150;2023-06-05T06:59:10;9.00;;;3.53;;
45354;SDS011;31091;48.758;9.150;2023-06-05T07:02:15;8.20;;;3.42;;
45354;SDS011;31091;48.758;9.150;2023-06-05T07:05:00;4.05;;;2.50;;
45354;SDS011;31091;48.758;9.150;2023-06-05T07:07:46;5.78;;;3.20;;
45354;SDS011;31091;48.758;9.150;2023-06-05T07:10:31;7.28;;;3.00;;
45354;SDS011;31091;48.758;9.150;2023-06-05T07:13:16;6.35;;;3.15;;
45354;SDS011;31091;48.758;9.150;2023-06-05T07:16:01;6.45;;;2.92;;
45354;SDS011;31091;48.758;9.150;2023-06-05T07:18:47;6.85;;;3.88;;
45354;SDS011;31091;48.758;9.150;2023-06-05T07:21:32;7.07;;;2.78;;
45354;SDS011;31091;48.758;9.150;2023-06-05T07:24:23;4.93;;;3.17;;
45354;SDS011;31091;48.758;9.150;2023-06-05T07:27:09;6.90;;;3.05;;
45354;SDS011;31091;48.758;9.150;2023-06-05T07:29:55;10.05;;;4.38;;
45354;SDS011;31091;48.758;9.150;2023-06-05T07:32:41;9.63;;;3.40;;
45354;SDS011;31091;48.758;9.150;2023-06-05T07:35:27;4.85;;;3.03;;
45354;SDS011;31091;48.758;9.150;2023-06-05T07:38:12;6.88;;;3.50;;
45354;SDS011;31091;48.758;9.150;2023-06-05T07:40:57;5.68;;;2.80;;
45354;SDS011;31091;48.758;9.150;2023-06-05T07:43:43;6.70;;;3.17;;
45354;SDS011;31091;48.758;9.150;2023-06-05T07:46:28;8.82;;;3.72;;
45354;SDS011;31091;48.758;9.150;2023-06-05T07:49:13;8.13;;;3.47;;
45354;SDS011;31091;48.758;9.150;2023-06-05T07:52:00;7.57;;;3.47;;
45354;SDS011;31091;48.758;9.150;2023-06-05T07:54:46;8.95;;;3.42;;
45354;SDS011;31091;48.758;9.150;2023-06-05T07:57:31;10.85;;;3.83;;
45354;SDS011;31091;48.758;9.150;2023-06-05T08:00:16;5.88;;;3.53;;
45354;SDS011;31091;48.758;9.150;2023-06-05T08:03:03;7.22;;;3.67;;
45354;SDS011;31091;48.758;9.150;2023-06-05T08:05:48;9.00;;;3.47;;
45354;SDS011;31091;48.758;9.150;2023-06-05T08:08:34;6.15;;;3.50;;
45354;SDS011;31091;48.758;9.150;2023-06-05T08:11:19;8.50;;;3.42;;
45354;SDS011;31091;48.758;9.150;2023-06-05T08:14:05;9.32;;;3.58;;
45354;SDS011;31091;48.758;9.150;2023-06-05T08:16:53;7.55;;;4.03;;
45354;SDS011;31091;48.758;9.150;2023-06-05T08:19:39;7.40;;;3.42;;
45354;SDS011;31091;48.758;9.150;2023-06-05T08:22:24;8.52;;;3.80;;
45354;SDS011;31091;48.758;9.150;2023-06-05T08:25:09;7.35;;;3.60;;
45354;SDS011;31091;48.758;9.150;2023-06-05T08:27:54;8.52;;;3.30;;
45354;SDS011;31091;48.758;9.150;2023-06-05T08:30:40;5.40;;;3.08;;
45354;SDS011;31091;48.758;9.150;2023-06-05T08:33:26;7.25;;;3.97;;
45354;SDS011;31091;48.758;9.150;2023-06-05T08:36:11;7.80;;;4.10;;
45354;SDS011;31091;48.758;9.150;2023-06-05T08:38:56;6.60;;;4.05;;
45354;SDS011;31091;48.758;9.150;2023-06-05T08:41:41;10.43;;;3.78;;
45354;SDS011;31091;48.758;9.150;2023-06-05T08:44:27;8.43;;;3.70;;
45354;SDS011;31091;48.758;9.150;2023-06-05T08:47:14;11.48;;;4.32;;
45354;SDS011;31091;48.758;9.150;2023-06-05T08:50:01;6.00;;;4.30;;
45354;SDS011;31091;48.758;9.150;2023-06-05T08:52:48;7.65;;;3.97;;
45354;SDS011;31091;48.758;9.150;2023-06-05T08:55:34;5.53;;;3.30;;
45354;SDS011;31091;48.758;9.150;2023-06-05T08:58:20;8.25;;;4.35;;
45354;SDS011;31091;48.758;9.150;2023-06-05T09:01:05;7.85;;;4.45;;
45354;SDS011;31091;48.758;9.150;2023-06-05T09:03:50;16.42;;;6.03;;
45354;SDS011;31091;48.758;9.150;2023-06-05T09:06:36;7.72;;;3.80;;
45354;SDS011;31091;48.758;9.150;2023-06-05T09:09:21;10.13;;;3.45;;
45354;SDS011;31091;48.758;9.150;2023-06-05T09:12:07;7.10;;;4.25;;
45354;SDS011;31091;48.758;9.150;2023-06-05T09:14:53;6.95;;;4.22;;
45354;SDS011;31091;48.758;9.150;2023-06-05T09:17:38;9.15;;;5.05;;
45354;SDS011;31091;48.758;9.150;2023-06-05T09:20:24;7.75;;;4.38;;
45354;SDS011;31091;48.758;9.150;2023-06-05T09:23:28;10.00;;;3.70;;
45354;SDS011;31091;48.758;9.150;2023-06-05T09:26:13;7.38;;;4.07;;
45354;SDS011;31091;48.758;9.150;2023-06-05T09:29:00;7.30;;;4.47;;
45354;SDS011;31091;48.758;9.150;2023-06-05T09:31:47;7.20;;;3.80;;
45354;SDS011;31091;48.758;9.150;2023-06-05T09:34:34;7.57;;;4.15;;
45354;SDS011;31091;48.758;9.150;2023-06-05T09:37:20;6.65;;;3.53;;
45354;SDS011;31091;48.758;9.150;2023-06-05T09:40:16;6.32;;;3.50;;
45354;SDS011;31091;48.758;9.150;2023-06-05T09:43:05;10.52;;;4.28;;
45354;SDS011;31091;48.758;9.150;2023-06-05T09:45:57;12.05;;;3.65;;
45354;SDS011;31091;48.758;9.150;2023-06-05T09:48:45;10.32;;;3.58;;
45354;SDS011;31091;48.758;9.150;2023-06-05T09:51:34;7.88;;;3.88;;
45354;SDS011;31091;48.758;9.150;2023-06-05T09:54:20;7.63;;;3.72;;
45354;SDS011;31091;48.758;9.150;2023-06-05T09:57:07;11.38;;;4.28;;
45354;SDS011;31091;48.758;9.150;2023-06-05T09:59:56;8.07;;;3.92;;
45354;SDS011;31091;48.758;9.150;2023-06-05T10:02:42;5.22;;;3.63;;
45354;SDS011;31091;48.758;9.150;2023-06-05T10:05:28;5.45;;;3.88;;
45354;SDS011;31091;48.758;9.150;2023-06-05T10:08:13;6.95;;;3.47;;
45354;SDS011;31091;48.758;9.150;2023-06-05T10:11:00;5.80;;;3.45;;
45354;SDS011;31091;48.758;9.150;2023-06-05T10:13:46;10.85;;;4.55;;
45354;SDS011;31091;48.758;9.150;2023-06-05T10:16:32;7.47;;;4.45;;
45354;SDS011;31091;48.758;9.150;2023-06-05T10:19:18;9.32;;;3.50;;
45354;SDS011;31091;48.758;9.150;2023-06-05T10:22:04;7.70;;;4.70;;
45354;SDS011;31091;48.758;9.150;2023-06-05T10:24:54;9.45;;;4.50;;
45354;SDS011;31091;48.758;9.150;2023-06-05T10:37:32;6.15;;;3.78;;
45354;SDS011;31091;48.758;9.150;2023-06-05T10:39:51;5.18;;;3.65;;
45354;SDS011;31091;48.758;9.150;2023-06-05T10:42:36;5.45;;;3.50;;
45354;SDS011;31091;48.758;9.150;2023-06-05T10:45:29;7.78;;;3.80;;
45354;SDS011;31091;48.758;9.150;2023-06-05T10:48:14;8.35;;;3.47;;
45354;SDS011;31091;48.758;9.150;2023-06-05T10:51:31;6.40;;;3.50;;
45354;SDS011;31091;48.758;9.150;2023-06-05T10:54:11;5.05;;;3.15;;
45354;SDS011;31091;48.758;9.150;2023-06-05T10:56:57;5.28;;;3.33;;
45354;SDS011;31091;48.758;9.150;2023-06-05T10:59:44;6.67;;;2.93;;
45354;SDS011;31091;48.758;9.150;2023-06-05T11:02:30;4.97;;;3.10;;
45354;SDS011;31091;48.758;9.150;2023-06-05T11:05:15;6.22;;;2.97;;
45354;SDS011;31091;48.758;9.150;2023-06-05T11:08:18;6.07;;;3.38;;
45354;SDS011;31091;48.758;9.150;2023-06-05T11:11:05;6.55;;;4.32;;
45354;SDS011;31091;48.758;9.150;2023-06-05T11:13:57;8.73;;;4.18;;
45354;SDS011;31091;48.758;9.150;2023-06-05T11:16:43;9.00;;;4.30;;
45354;SDS011;31091;48.758;9.150;2023-06-05T11:19:35;6.25;;;2.95;;
45354;SDS011;31091;48.758;9.150;2023-06-05T11:22:20;5.57;;;2.92;;
45354;SDS011;31091;48.758;9.150;2023-06-05T11:28:06;6.32;;;3.40;;
45354;SDS011;31091;48.758;9.150;2023-06-05T11:30:53;7.45;;;3.63;;
45354;SDS011;31091;48.758;9.150;2023-06-05T11:33:38;6.40;;;3.40;;
45354;SDS011;31091;48.758;9.150;2023-06-05T11:36:23;7.70;;;3.10;;
45354;SDS011;31091;48.758;9.150;2023-06-05T11:39:10;5.68;;;3.35;;
45354;SDS011;31091;48.758;9.150;2023-06-05T11:41:55;7.43;;;3.40;;
45354;SDS011;31091;48.758;9.150;2023-06-05T11:44:41;7.07;;;3.50;;
45354;SDS011;31091;48.758;9.150;2023-06-05T11:47:26;4.55;;;3.20;;
45354;SDS011;31091;48.758;9.150;2023-06-05T11:50:14;6.60;;;3.15;;
45354;SDS011;31091;48.758;9.150;2023-06-05T11:53:10;6.18;;;3.50;;
45354;SDS011;31091;48.758;9.150;2023-06-05T11:55:57;5.78;;;3.33;;
45354;SDS011;31091;48.758;9.150;2023-06-05T11:58:48;5.75;;;3.40;;
45354;SDS011;31091;48.758;9.150;2023-06-05T12:01:33;6.20;;;3.08;;
45354;SDS011;31091;48.758;9.150;2023-06-05T12:04:18;7.13;;;3.60;;
45354;SDS011;31091;48.758;9.150;2023-06-05T12:07:04;4.57;;;2.88;;
45354;SDS011;31091;48.758;9.150;2023-06-05T12:09:52;6.82;;;3.25;;
45354;SDS011;31091;48.758;9.150;2023-06-05T12:12:53;6.60;;;3.13;;
45354;SDS011;31091;48.758;9.150;2023-06-05T12:15:38;5.45;;;3.25;;
45354;SDS011;31091;48.758;9.150;2023-06-05T12:18:33;4.93;;;3.22;;
45354;SDS011;31091;48.758;9.150;2023-06-05T12:21:19;6.85;;;4.20;;
45354;SDS011;31091;48.758;9.150;2023-06-05T12:24:04;6.93;;;3.00;;
45354;SDS011;31091;48.758;9.150;2023-06-05T12:26:50;8.60;;;3.55;;
45354;SDS011;31091;48.758;9.150;2023-06-05T12:29:39;9.10;;;3.10;;
45354;SDS011;31091;48.758;9.150;2023-06-05T12:32:36;5.03;;;3.10;;
45354;SDS011;31091;48.758;9.150;2023-06-05T12:35:24;8.70;;;3.25;;
45354;SDS011;31091;48.758;9.150;2023-06-05T12:38:10;9.52;;;3.40;;
45354;SDS011;31091;48.758;9.150;2023-06-05T12:40:56;7.18;;;3.40;;
45354;SDS011;31091;48.758;9.150;2023-06-05T12:43:42;6.43;;;3.72;;
45354;SDS011;31091;48.758;9.150;2023-06-05T12:46:27;5.72;;;3.40;;
45354;SDS011;31091;48.758;9.150;2023-06-05T12:49:13;5.05;;;3.15;;
45354;SDS011;31091;48.758;9.150;2023-06-05T12:51:58;5.20;;;3.13;;
45354;SDS011;31091;48.758;9.150;2023-06-05T12:54:46;7.43;;;3.60;;
45354;SDS011;31091;48.758;9.150;2023-06-05T12:57:31;6.93;;;3.80;;
45354;SDS011;31091;48.758;9.150;2023-06-05T13:00:17;8.55;;;3.47;;
45354;SDS011;31091;48.758;9.150;2023-06-05T13:03:03;5.63;;;3.20;;
45354;SDS011;31091;48.758;9.150;2023-06-05T13:05:49;6.95;;;3.67;;
45354;SDS011;31091;48.758;9.150;2023-06-05T13:08:34;5.90;;;4.00;;
45354;SDS011;31091;48.758;9.150;2023-06-05T13:11:20;14.65;;;5.38;;
45354;SDS011;31091;48.758;9.150;2023-06-05T13:14:06;6.35;;;3.50;;
45354;SDS011;31091;48.758;9.150;2023-06-05T13:16:51;6.55;;;3.75;;
45354;SDS011;31091;48.758;9.150;2023-06-05T13:19:36;8.23;;;3.78;;
45354;SDS011;31091;48.758;9.150;2023-06-05T13:22:21;6.40;;;3.30;;
45354;SDS011;31091;48.758;9.150;2023-06-05T13:25:07;8.38;;;3.90;;
45354;SDS011;31091;48.758;9.150;2023-06-05T13:27:53;6.22;;;4.18;;
45354;SDS011;31091;48.758;9.150;2023-06-05T13:30:38;6.72;;;3.58;;
45354;SDS011;31091;48.758;9.150;2023-06-05T13:33:23;6.60;;;3.42;;
45354;SDS011;31091;48.758;9.150;2023-06-05T13:36:09;4.97;;;3.65;;
45354;SDS011;31091;48.758;9.150;2023-06-05T13:38:55;8.82;;;3.80;;
45354;SDS011;31091;48.758;9.150;2023-06-05T13:41:40;8.30;;;3.42;;
45354;SDS011;31091;48.758;9.150;2023-06-05T13:44:25;5.32;;;3.63;;
45354;SDS011;31091;48.758;9.150;2023-06-05T13:47:10;6.00;;;3.83;;
45354;SDS011;31091;48.758;9.150;2023-06-05T13:49:56;7.47;;;4.18;;
45354;SDS011;31091;48.758;9.150;2023-06-05T13:52:42;6.60;;;4.05;;
45354;SDS011;31091;48.758;9.150;2023-06-05T13:55:28;6.70;;;3.35;;
45354;SDS011;31091;48.758;9.150;2023-06-05T13:58:13;6.90;;;3.70;;
45354;SDS011;31091;48.758;9.150;2023-06-05T14:00:59;7.28;;;3.22;;
45354;SDS011;31091;48.758;9.150;2023-06-05T14:03:44;6.55;;;3.70;;
45354;SDS011;31091;48.758;9.150;2023-06-05T14:06:31;5.72;;;3.63;;
45354;SDS011;31091;48.758;9.150;2023-06-05T14:09:17;6.05;;;3.65;;
45354;SDS011;31091;48.758;9.150;2023-06-05T14:12:04;5.38;;;3.83;;
45354;SDS011;31091;48.758;9.150;2023-06-05T14:14:49;5.75;;;3.40;;
45354;SDS011;31091;48.758;9.150;2023-06-05T14:17:35;6.95;;;3.78;;
45354;SDS011;31091;48.758;9.150;2023-06-05T14:20:20;6.70;;;3.67;;
45354;SDS011;31091;48.758;9.150;2023-06-05T14:23:05;5.90;;;3.38;;
45354;SDS011;31091;48.758;9.150;2023-06-05T14:25:50;6.78;;;3.67;;
45354;SDS011;31091;48.758;9.150;2023-06-05T14:28:36;6.75;;;3.90;;
45354;SDS011;31091;48.758;9.150;2023-06-05T14:31:21;5.50;;;3.42;;
45354;SDS011;31091;48.758;9.150;2023-06-05T14:34:10;7.45;;;3.70;;
45354;SDS011;31091;48.758;9.150;2023-06-05T14:36:55;7.57;;;4.05;;
45354;SDS011;31091;48.758;9.150;2023-06-05T14:39:40;11.70;;;4.10;;
45354;SDS011;31091;48.758;9.150;2023-06-05T14:42:26;5.53;;;3.63;;
45354;SDS011;31091;48.758;9.150;2023-06-05T14:45:11;6.70;;;3.78;;
45354;SDS011;31091;48.758;9.150;2023-06-05T14:47:56;8.43;;;3.85;;
45354;SDS011;31091;48.758;9.150;2023-06-05T14:50:42;6.35;;;3.17;;
45354;SDS011;31091;48.758;9.150;2023-06-05T14:53:27;7.03;;;3.47;;
45354;SDS011;31091;48.758;9.150;2023-06-05T14:56:12;7.78;;;3.55;;
45354;SDS011;31091;48.758;9.150;2023-06-05T14:58:58;6.07;;;3.40;;
45354;SDS011;31091;48.758;9.150;2023-06-05T15:01:43;7.10;;;3.10;;
45354;SDS011;31091;48.758;9.150;2023-06-05T15:04:28;6.68;;;3.95;;
45354;SDS011;31091;48.758;9.150;2023-06-05T15:07:18;4.82;;;3.25;;
45354;SDS011;31091;48.758;9.150;2023-06-05T15:10:04;7.30;;;4.40;;
45354;SDS011;31091;48.758;9.150;2023-06-05T15:12:49;8.43;;;4.05;;
45354;SDS011;31091;48.758;9.150;2023-06-05T15:15:41;5.03;;;3.60;;
45354;SDS011;31091;48.758;9.150;2023-06-05T15:18:26;6.35;;;3.03;;
45354;SDS011;31091;48.758;9.150;2023-06-05T15:21:11;5.38;;;3.55;;
45354;SDS011;31091;48.758;9.150;2023-06-05T15:23:56;4.63;;;2.95;;
45354;SDS011;31091;48.758;9.150;2023-06-05T15:26:42;4.60;;;3.35;;
45354;SDS011;31091;48.758;9.150;2023-06-05T15:29:27;7.47;;;3.45;;
45354;SDS011;31091;48.758;9.150;2023-06-05T15:32:12;5.80;;;3.72;;
45354;SDS011;31091;48.758;9.150;2023-06-05T15:34:58;6.07;;;2.80;;
45354;SDS011;31091;48.758;9.150;2023-06-05T15:37:43;7.18;;;3.83;;
45354;SDS011;31091;48.758;9.150;2023-06-05T15:40:28;6.25;;;2.75;;
45354;SDS011;31091;48.758;9.150;2023-06-05T15:43:13;5.88;;;3.13;;
45354;SDS011;31091;48.758;9.150;2023-06-05T15:45:59;5.57;;;3.15;;
45354;SDS011;31091;48.758;9.150;2023-06-05T15:48:44;5.47;;;3.20;;
45354;SDS011;31091;48.758;9.150;2023-06-05T15:51:29;4.18;;;2.95;;
45354;SDS011;31091;48.758;9.150;2023-06-05T15:54:15;6.85;;;3.53;;
45354;SDS011;31091;48.758;9.150;2023-06-05T15:57:05;4.57;;;3.15;;
45354;SDS011;31091;48.758;9.150;2023-06-05T15:59:51;5.00;;;3.05;;
45354;SDS011;31091;48.758;9.150;2023-06-05T16:02:37;5.40;;;3.65;;
45354;SDS011;31091;48.758;9.150;2023-06-05T16:05:22;5.30;;;3.10;;
45354;SDS011;31091;48.758;9.150;2023-06-05T16:08:08;7.97;;;3.58;;
45354;SDS011;31091;48.758;9.150;2023-06-05T16:10:53;5.95;;;3.40;;
45354;SDS011;31091;48.758;9.150;2023-06-05T16:13:38;4.43;;;2.90;;
45354;SDS011;31091;48.758;9.150;2023-06-05T16:16:24;5.40;;;3.28;;
45354;SDS011;31091;48.758;9.150;2023-06-05T16:19:09;4.13;;;3.20;;
45354;SDS011;31091;48.758;9.150;2023-06-05T16:21:55;6.55;;;3.47;;
45354;SDS011;31091;48.758;9.150;2023-06-05T16:24:42;5.88;;;3.35;;
45354;SDS011;31091;48.758;9.150;2023-06-05T16:27:27;6.30;;;2.88;;
45354;SDS011;31091;48.758;9.150;2023-06-05T16:30:12;7.82;;;3.75;;
45354;SDS011;31091;48.758;9.150;2023-06-05T16:32:58;5.30;;;3.03;;
45354;SDS011;31091;48.758;9.150;2023-06-05T16:35:43;4.25;;;2.97;;
45354;SDS011;31091;48.758;9.150;2023-06-05T16:38:28;6.22;;;3.13;;
45354;SDS011;31091;48.758;9.150;2023-06-05T16:41:13;7.68;;;3.33;;
45354;SDS011;31091;48.758;9.150;2023-06-05T16:43:59;6.28;;;3.60;;
45354;SDS011;31091;48.758;9.150;2023-06-05T16:46:44;7.88;;;4.25;;
45354;SDS011;31091;48.758;9.150;2023-06-05T16:49:29;6.95;;;3.60;;
45354;SDS011;31091;48.758;9.150;2023-06-05T16:52:14;8.80;;;4.20;;
45354;SDS011;31091;48.758;9.150;2023-06-05T16:55:00;5.78;;;3.13;;
45354;SDS011;31091;48.758;9.150;2023-06-05T16:57:45;6.07;;;3.08;;